»·PEaware :: TWA420 KSFO-KBUR

TWA420 :: KSFO-KBUR

FLIGHT INFORMATION

Flight Status: Arrived
Operator:
Trans World Airlines
More flights by this operator :: More flights under this callsign
Pilot: Ben F. (2808)
Aircraft: BOEING 727-200
(B722)
More flights by this aircraft type
Origin: KSFO San Francisco Intl
United States
Destination: KBUR Bob Hope-Burbank
United States
More flights between these airports :: More routes between these airports
Route: OFFSH1 MCKEY FLW FERN7
File this flight plan on PilotEdge
Remarks:
Altitude:
(Current/Filed)
31,000ft
Speed:
(Current/Filed)
493kts
Departed: 17-Sep-18 06:56 PM
Arrived: 17-Sep-18 07:51 PM
Distance/Time
Traveled:
283nm/0:55
Distance/Time
To Go:
Arrived

Flight Plot

Page will automatically refresh every two minutes.

Flight plan parsing failed; only flown route is shown


Map Options




Map Legend


Flown Route
Filed Route
Departure Airport
Arrival Airport
Navaid (VOR, NDB)
Fix

Horizontal Profiles

Position Reports

Time Latitude Longitude Heading Altitude Ground
Speed
17-Sep-18 18:31 37.618358 -122.382035 139 25ft 0kts
17-Sep-18 18:32 37.618358 -122.382035 139 25ft 0kts
17-Sep-18 18:33 37.618358 -122.382035 139 25ft 0kts
17-Sep-18 18:40 37.618358 -122.382035 138 25ft 0kts
17-Sep-18 18:41 37.618358 -122.382035 139 25ft 0kts
17-Sep-18 18:42 37.618358 -122.382035 139 25ft 0kts
17-Sep-18 18:43 37.618358 -122.382035 139 25ft 0kts
17-Sep-18 18:44 37.618358 -122.382035 139 25ft 0kts
17-Sep-18 18:45 37.618358 -122.382035 139 25ft 0kts
17-Sep-18 18:46 37.618358 -122.382035 139 25ft 0kts
17-Sep-18 18:47 37.618358 -122.382035 139 25ft 0kts
17-Sep-18 18:48 37.618484 -122.382173 136 25ft 2kts
17-Sep-18 18:49 37.618445 -122.382776 36 25ft 1kts
17-Sep-18 18:50 37.618406 -122.382810 37 25ft 0kts
17-Sep-18 18:51 37.618447 -122.382770 37 25ft 4kts
17-Sep-18 18:52 37.619208 -122.380981 114 25ft 16kts
17-Sep-18 18:53 37.614737 -122.380890 208 25ft 24kts
17-Sep-18 18:54 37.609773 -122.384223 187 25ft 6kts
17-Sep-18 18:55 37.609119 -122.383508 124 25ft 0kts
17-Sep-18 18:56 37.609119 -122.383508 124 25ft 0kts
17-Sep-18 18:57 37.609183 -122.382070 30 25ft 0kts
17-Sep-18 18:58 37.632681 -122.365521 23 518ft 183kts
17-Sep-18 18:59 37.679188 -122.360927 1 3129ft 183kts
17-Sep-18 19:00 37.727237 -122.384790 278 4865ft 241kts
17-Sep-18 19:01 37.686618 -122.450019 215 8010ft 264kts
17-Sep-18 19:02 37.624546 -122.504853 214 10897ft 291kts
17-Sep-18 19:03 37.552741 -122.567949 214 13157ft 331kts
17-Sep-18 19:04 37.476783 -122.633169 213 16140ft 335kts
17-Sep-18 19:05 37.394999 -122.682237 176 18571ft 344kts
17-Sep-18 19:06 37.299854 -122.658880 172 20676ft 354kts
17-Sep-18 19:07 37.202500 -122.633625 172 22544ft 362kts
17-Sep-18 19:08 37.103200 -122.607971 173 24171ft 370kts
17-Sep-18 19:09 37.001235 -122.581667 175 25537ft 380kts
17-Sep-18 19:10 36.898577 -122.555109 176 26794ft 387kts
17-Sep-18 19:11 36.797293 -122.528853 176 27981ft 393kts
17-Sep-18 19:12 36.690235 -122.501149 177 29093ft 399kts
17-Sep-18 19:13 36.581068 -122.472979 177 30100ft 404kts
17-Sep-18 19:14 36.471085 -122.444681 177 31064ft 408kts
17-Sep-18 19:15 36.372324 -122.358389 140 31071ft 480kts
17-Sep-18 19:16 36.284121 -122.230271 140 31050ft 498kts
17-Sep-18 19:17 36.194775 -122.100252 140 31048ft 496kts
17-Sep-18 19:18 36.106066 -121.971685 140 31048ft 488kts
17-Sep-18 19:19 36.018485 -121.845247 140 31049ft 483kts
17-Sep-18 19:20 35.931562 -121.720237 140 31050ft 479kts
17-Sep-18 19:21 35.845617 -121.597104 140 31038ft 480kts
17-Sep-18 19:22 35.758268 -121.472659 140 30979ft 482kts
17-Sep-18 19:23 35.673102 -121.351823 140 30956ft 483kts
17-Sep-18 19:24 35.587715 -121.230937 141 30942ft 482kts
17-Sep-18 19:25 35.500541 -121.107687 139 30943ft 482kts
17-Sep-18 19:26 35.443200 -120.954734 119 30965ft 504kts
17-Sep-18 19:27 35.392588 -120.795030 119 30980ft 504kts
17-Sep-18 19:28 35.342131 -120.636103 119 30994ft 507kts
17-Sep-18 19:29 35.290956 -120.475739 118 30996ft 511kts
17-Sep-18 19:30 35.239897 -120.316573 119 30992ft 514kts
17-Sep-18 19:31 35.188290 -120.156484 119 30688ft 507kts
17-Sep-18 19:32 35.137965 -120.001309 119 28226ft 480kts
17-Sep-18 19:33 35.085872 -119.859531 136 25574ft 422kts
17-Sep-18 19:34 35.015058 -119.759539 138 22049ft 373kts
17-Sep-18 19:35 34.942855 -119.661826 136 18509ft 397kts
17-Sep-18 19:36 34.874703 -119.569951 135 15376ft 383kts
17-Sep-18 19:37 34.804347 -119.475479 134 13229ft 381kts
17-Sep-18 19:38 34.735180 -119.382833 134 11763ft 360kts
17-Sep-18 19:39 34.671468 -119.297718 135 10987ft 338kts
17-Sep-18 19:40 34.606337 -119.211023 134 10990ft 365kts
17-Sep-18 19:41 34.542719 -119.126310 135 10984ft 316kts
17-Sep-18 19:42 34.487588 -119.053116 135 10992ft 280kts
17-Sep-18 19:43 34.451760 -118.973487 111 10995ft 269kts
17-Sep-18 19:44 34.429688 -118.897781 111 10623ft 308kts
17-Sep-18 19:45 34.395180 -118.782166 111 8359ft 326kts
17-Sep-18 19:46 34.366924 -118.687942 111 6400ft 260kts
17-Sep-18 19:47 34.347428 -118.622577 111 5031ft 270kts
17-Sep-18 19:48 34.324812 -118.528861 94 4643ft 246kts
17-Sep-18 19:49 34.321159 -118.461388 94 4051ft 237kts
17-Sep-18 19:50 34.303576 -118.391155 144 3211ft 226kts
17-Sep-18 19:51 34.237553 -118.367522 166 1581ft 168kts
17-Sep-18 19:52 34.206042 -118.358729 167 788ft 116kts
17-Sep-18 19:53 34.196525 -118.355009 128 788ft 0kts
17-Sep-18 19:54 34.196525 -118.355009 128 788ft 0kts
17-Sep-18 19:55 34.196525 -118.355009 128 788ft 0kts
17-Sep-18 19:56 34.196525 -118.355009 128 788ft 0kts
17-Sep-18 19:57 34.196525 -118.355009 128 788ft 0kts
17-Sep-18 19:58 34.196525 -118.355009 128 788ft 0kts
17-Sep-18 19:59 34.196525 -118.355009 128 788ft 0kts
17-Sep-18 20:00 34.196525 -118.355009 128 788ft 0kts
17-Sep-18 20:01 34.196525 -118.355009 128 788ft 0kts

Navigation Log

Ident Type
Flight plan parsing failed, navigation log unavailable